sensor_id;sensor_type;location;lat;lon;timestamp;P1;durP1;ratioP1;P2;durP2;ratioP2
49730;SDS011;35622;52.008;5.426;2023-08-17T00:01:34;5.30;;;2.47;;
49730;SDS011;35622;52.008;5.426;2023-08-17T00:03:59;6.65;;;2.63;;
49730;SDS011;35622;52.008;5.426;2023-08-17T00:06:25;6.32;;;2.50;;
49730;SDS011;35622;52.008;5.426;2023-08-17T00:08:51;4.63;;;2.47;;
49730;SDS011;35622;52.008;5.426;2023-08-17T00:11:16;6.07;;;2.58;;
49730;SDS011;35622;52.008;5.426;2023-08-17T00:13:42;7.38;;;2.85;;
49730;SDS011;35622;52.008;5.426;2023-08-17T00:16:07;7.10;;;2.40;;
49730;SDS011;35622;52.008;5.426;2023-08-17T00:18:33;4.07;;;2.55;;
49730;SDS011;35622;52.008;5.426;2023-08-17T00:20:59;4.30;;;2.55;;
49730;SDS011;35622;52.008;5.426;2023-08-17T00:23:24;4.35;;;2.13;;
49730;SDS011;35622;52.008;5.426;2023-08-17T00:25:50;5.10;;;2.38;;
49730;SDS011;35622;52.008;5.426;2023-08-17T00:28:15;4.85;;;2.40;;
49730;SDS011;35622;52.008;5.426;2023-08-17T00:30:41;4.68;;;2.63;;
49730;SDS011;35622;52.008;5.426;2023-08-17T00:33:07;3.85;;;2.22;;
49730;SDS011;35622;52.008;5.426;2023-08-17T00:35:32;4.25;;;2.15;;
49730;SDS011;35622;52.008;5.426;2023-08-17T00:37:58;6.95;;;2.97;;
49730;SDS011;35622;52.008;5.426;2023-08-17T00:40:24;5.22;;;2.25;;
49730;SDS011;35622;52.008;5.426;2023-08-17T00:42:50;5.93;;;2.70;;
49730;SDS011;35622;52.008;5.426;2023-08-17T00:45:17;5.53;;;2.42;;
49730;SDS011;35622;52.008;5.426;2023-08-17T00:47:43;5.88;;;2.55;;
49730;SDS011;35622;52.008;5.426;2023-08-17T00:50:08;9.30;;;3.17;;
49730;SDS011;35622;52.008;5.426;2023-08-17T00:52:36;5.65;;;2.42;;
49730;SDS011;35622;52.008;5.426;2023-08-17T00:55:02;6.68;;;2.53;;
49730;SDS011;35622;52.008;5.426;2023-08-17T00:57:29;6.38;;;2.55;;
49730;SDS011;35622;52.008;5.426;2023-08-17T00:59:56;6.90;;;2.67;;
49730;SDS011;35622;52.008;5.426;2023-08-17T01:02:23;9.68;;;2.75;;
49730;SDS011;35622;52.008;5.426;2023-08-17T01:04:49;5.13;;;2.72;;
49730;SDS011;35622;52.008;5.426;2023-08-17T01:07:15;6.55;;;2.50;;
49730;SDS011;35622;52.008;5.426;2023-08-17T01:09:40;5.75;;;2.60;;
49730;SDS011;35622;52.008;5.426;2023-08-17T01:20:13;5.57;;;2.58;;
49730;SDS011;35622;52.008;5.426;2023-08-17T01:22:42;6.22;;;2.80;;
49730;SDS011;35622;52.008;5.426;2023-08-17T01:25:10;3.65;;;2.40;;
49730;SDS011;35622;52.008;5.426;2023-08-17T01:27:38;6.72;;;2.75;;
49730;SDS011;35622;52.008;5.426;2023-08-17T01:30:05;4.53;;;2.70;;
49730;SDS011;35622;52.008;5.426;2023-08-17T01:32:36;3.50;;;2.28;;
49730;SDS011;35622;52.008;5.426;2023-08-17T01:35:52;4.68;;;2.30;;
49730;SDS011;35622;52.008;5.426;2023-08-17T01:37:57;4.47;;;2.80;;
49730;SDS011;35622;52.008;5.426;2023-08-17T01:40:24;5.40;;;2.63;;
49730;SDS011;35622;52.008;5.426;2023-08-17T01:42:53;5.43;;;2.85;;
49730;SDS011;35622;52.008;5.426;2023-08-17T01:45:20;6.30;;;2.90;;
49730;SDS011;35622;52.008;5.426;2023-08-17T01:47:46;4.50;;;2.72;;
49730;SDS011;35622;52.008;5.426;2023-08-17T01:50:11;4.75;;;2.50;;
49730;SDS011;35622;52.008;5.426;2023-08-17T01:52:37;3.75;;;2.50;;
49730;SDS011;35622;52.008;5.426;2023-08-17T01:55:02;5.00;;;2.80;;
49730;SDS011;35622;52.008;5.426;2023-08-17T01:57:28;4.40;;;2.55;;
49730;SDS011;35622;52.008;5.426;2023-08-17T01:59:54;4.72;;;2.20;;
49730;SDS011;35622;52.008;5.426;2023-08-17T02:02:19;4.53;;;2.20;;
49730;SDS011;35622;52.008;5.426;2023-08-17T02:04:46;6.65;;;2.45;;
49730;SDS011;35622;52.008;5.426;2023-08-17T02:07:12;7.25;;;2.42;;
49730;SDS011;35622;52.008;5.426;2023-08-17T02:09:37;5.60;;;2.10;;
49730;SDS011;35622;52.008;5.426;2023-08-17T02:12:03;3.63;;;2.00;;
49730;SDS011;35622;52.008;5.426;2023-08-17T02:14:29;7.03;;;2.63;;
49730;SDS011;35622;52.008;5.426;2023-08-17T02:16:54;4.75;;;2.45;;
49730;SDS011;35622;52.008;5.426;2023-08-17T02:19:20;5.90;;;2.53;;
49730;SDS011;35622;52.008;5.426;2023-08-17T02:21:45;3.55;;;2.33;;
49730;SDS011;35622;52.008;5.426;2023-08-17T02:24:11;3.13;;;2.10;;
49730;SDS011;35622;52.008;5.426;2023-08-17T02:26:37;4.07;;;2.60;;
49730;SDS011;35622;52.008;5.426;2023-08-17T02:29:03;3.72;;;2.20;;
49730;SDS011;35622;52.008;5.426;2023-08-17T02:31:29;5.20;;;1.95;;
49730;SDS011;35622;52.008;5.426;2023-08-17T02:33:54;6.85;;;2.00;;
49730;SDS011;35622;52.008;5.426;2023-08-17T02:36:25;4.47;;;2.20;;
49730;SDS011;35622;52.008;5.426;2023-08-17T02:38:54;5.32;;;2.10;;
49730;SDS011;35622;52.008;5.426;2023-08-17T02:41:20;4.70;;;2.58;;
49730;SDS011;35622;52.008;5.426;2023-08-17T02:43:46;5.47;;;2.40;;
49730;SDS011;35622;52.008;5.426;2023-08-17T02:46:11;5.40;;;2.35;;
49730;SDS011;35622;52.008;5.426;2023-08-17T02:48:37;5.97;;;2.58;;
49730;SDS011;35622;52.008;5.426;2023-08-17T02:51:02;8.82;;;2.92;;
49730;SDS011;35622;52.008;5.426;2023-08-17T02:53:28;4.63;;;2.53;;
49730;SDS011;35622;52.008;5.426;2023-08-17T02:55:53;6.32;;;2.33;;
49730;SDS011;35622;52.008;5.426;2023-08-17T02:58:19;5.10;;;2.95;;
49730;SDS011;35622;52.008;5.426;2023-08-17T03:00:44;4.88;;;2.75;;
49730;SDS011;35622;52.008;5.426;2023-08-17T03:03:10;6.38;;;2.85;;
49730;SDS011;35622;52.008;5.426;2023-08-17T03:05:35;4.05;;;2.40;;
49730;SDS011;35622;52.008;5.426;2023-08-17T03:08:01;5.47;;;3.13;;
49730;SDS011;35622;52.008;5.426;2023-08-17T03:10:27;5.60;;;2.80;;
49730;SDS011;35622;52.008;5.426;2023-08-17T03:12:52;5.90;;;2.80;;
49730;SDS011;35622;52.008;5.426;2023-08-17T03:15:18;4.78;;;2.92;;
49730;SDS011;35622;52.008;5.426;2023-08-17T03:17:43;8.73;;;3.40;;
49730;SDS011;35622;52.008;5.426;2023-08-17T03:20:09;5.88;;;3.05;;
49730;SDS011;35622;52.008;5.426;2023-08-17T03:22:35;6.28;;;2.85;;
49730;SDS011;35622;52.008;5.426;2023-08-17T03:25:00;6.50;;;3.22;;
49730;SDS011;35622;52.008;5.426;2023-08-17T03:27:27;6.07;;;2.75;;
49730;SDS011;35622;52.008;5.426;2023-08-17T03:29:53;5.60;;;3.00;;
49730;SDS011;35622;52.008;5.426;2023-08-17T03:32:19;6.30;;;3.20;;
49730;SDS011;35622;52.008;5.426;2023-08-17T03:34:44;5.68;;;3.08;;
49730;SDS011;35622;52.008;5.426;2023-08-17T03:37:10;7.82;;;3.22;;
49730;SDS011;35622;52.008;5.426;2023-08-17T03:39:36;4.55;;;3.35;;
49730;SDS011;35622;52.008;5.426;2023-08-17T03:42:02;5.35;;;3.22;;
49730;SDS011;35622;52.008;5.426;2023-08-17T03:44:27;6.57;;;3.05;;
49730;SDS011;35622;52.008;5.426;2023-08-17T03:46:53;5.78;;;3.40;;
49730;SDS011;35622;52.008;5.426;2023-08-17T03:49:18;5.32;;;3.05;;
49730;SDS011;35622;52.008;5.426;2023-08-17T03:51:44;4.55;;;3.28;;
49730;SDS011;35622;52.008;5.426;2023-08-17T03:54:11;6.97;;;3.08;;
49730;SDS011;35622;52.008;5.426;2023-08-17T03:56:37;5.90;;;3.08;;
49730;SDS011;35622;52.008;5.426;2023-08-17T03:59:02;4.82;;;3.20;;
49730;SDS011;35622;52.008;5.426;2023-08-17T04:01:28;8.70;;;3.33;;
49730;SDS011;35622;52.008;5.426;2023-08-17T04:03:54;6.22;;;3.22;;
49730;SDS011;35622;52.008;5.426;2023-08-17T04:06:20;8.55;;;3.00;;
49730;SDS011;35622;52.008;5.426;2023-08-17T04:08:45;4.57;;;2.85;;
49730;SDS011;35622;52.008;5.426;2023-08-17T04:11:11;8.65;;;2.78;;
49730;SDS011;35622;52.008;5.426;2023-08-17T04:13:37;7.88;;;3.13;;
49730;SDS011;35622;52.008;5.426;2023-08-17T04:16:02;5.15;;;2.30;;
49730;SDS011;35622;52.008;5.426;2023-08-17T04:18:28;9.80;;;2.70;;
49730;SDS011;35622;52.008;5.426;2023-08-17T04:20:53;6.28;;;2.40;;
49730;SDS011;35622;52.008;5.426;2023-08-17T04:23:19;7.18;;;2.80;;
49730;SDS011;35622;52.008;5.426;2023-08-17T04:25:46;10.93;;;3.63;;
49730;SDS011;35622;52.008;5.426;2023-08-17T04:28:12;8.82;;;3.05;;
49730;SDS011;35622;52.008;5.426;2023-08-17T04:30:37;4.82;;;2.70;;
49730;SDS011;35622;52.008;5.426;2023-08-17T04:33:03;6.72;;;2.70;;
49730;SDS011;35622;52.008;5.426;2023-08-17T04:35:29;7.03;;;2.83;;
49730;SDS011;35622;52.008;5.426;2023-08-17T04:37:55;8.77;;;2.92;;
49730;SDS011;35622;52.008;5.426;2023-08-17T04:40:20;6.40;;;2.90;;
49730;SDS011;35622;52.008;5.426;2023-08-17T04:42:46;6.70;;;2.90;;
49730;SDS011;35622;52.008;5.426;2023-08-17T04:45:11;6.88;;;2.83;;
49730;SDS011;35622;52.008;5.426;2023-08-17T04:47:37;6.40;;;2.88;;
49730;SDS011;35622;52.008;5.426;2023-08-17T04:50:04;9.73;;;3.10;;
49730;SDS011;35622;52.008;5.426;2023-08-17T04:52:30;5.28;;;2.70;;
49730;SDS011;35622;52.008;5.426;2023-08-17T04:54:55;6.68;;;2.65;;
49730;SDS011;35622;52.008;5.426;2023-08-17T04:57:21;5.15;;;2.80;;
49730;SDS011;35622;52.008;5.426;2023-08-17T04:59:46;4.78;;;2.88;;
49730;SDS011;35622;52.008;5.426;2023-08-17T05:02:12;6.90;;;2.97;;
49730;SDS011;35622;52.008;5.426;2023-08-17T05:04:37;6.25;;;2.53;;
49730;SDS011;35622;52.008;5.426;2023-08-17T05:07:04;7.07;;;2.67;;
49730;SDS011;35622;52.008;5.426;2023-08-17T05:09:30;7.05;;;3.00;;
49730;SDS011;35622;52.008;5.426;2023-08-17T05:11:56;5.75;;;2.70;;
49730;SDS011;35622;52.008;5.426;2023-08-17T05:14:22;5.78;;;2.80;;
49730;SDS011;35622;52.008;5.426;2023-08-17T05:16:47;6.85;;;2.85;;
49730;SDS011;35622;52.008;5.426;2023-08-17T05:19:13;8.43;;;2.47;;
49730;SDS011;35622;52.008;5.426;2023-08-17T05:21:38;7.57;;;3.00;;
49730;SDS011;35622;52.008;5.426;2023-08-17T05:24:04;6.47;;;3.10;;
49730;SDS011;35622;52.008;5.426;2023-08-17T05:26:30;4.55;;;2.35;;
49730;SDS011;35622;52.008;5.426;2023-08-17T05:28:55;6.97;;;3.35;;
49730;SDS011;35622;52.008;5.426;2023-08-17T05:31:21;4.65;;;2.33;;
49730;SDS011;35622;52.008;5.426;2023-08-17T05:33:46;6.85;;;2.50;;
49730;SDS011;35622;52.008;5.426;2023-08-17T05:36:12;7.38;;;2.50;;
49730;SDS011;35622;52.008;5.426;2023-08-17T05:38:38;5.45;;;2.53;;
49730;SDS011;35622;52.008;5.426;2023-08-17T05:41:03;6.25;;;2.60;;
49730;SDS011;35622;52.008;5.426;2023-08-17T05:43:29;6.80;;;2.38;;
49730;SDS011;35622;52.008;5.426;2023-08-17T05:45:56;5.97;;;2.20;;
49730;SDS011;35622;52.008;5.426;2023-08-17T05:48:24;6.93;;;2.42;;
49730;SDS011;35622;52.008;5.426;2023-08-17T05:50:49;5.93;;;2.10;;
49730;SDS011;35622;52.008;5.426;2023-08-17T05:53:15;8.02;;;2.78;;
49730;SDS011;35622;52.008;5.426;2023-08-17T05:55:41;6.30;;;2.00;;
49730;SDS011;35622;52.008;5.426;2023-08-17T05:58:06;6.28;;;2.60;;
49730;SDS011;35622;52.008;5.426;2023-08-17T06:00:32;3.45;;;2.20;;
49730;SDS011;35622;52.008;5.426;2023-08-17T06:02:57;5.00;;;2.15;;
49730;SDS011;35622;52.008;5.426;2023-08-17T06:05:29;5.82;;;2.15;;
49730;SDS011;35622;52.008;5.426;2023-08-17T06:07:55;4.18;;;2.13;;
49730;SDS011;35622;52.008;5.426;2023-08-17T06:10:21;3.75;;;2.10;;
49730;SDS011;35622;52.008;5.426;2023-08-17T06:12:54;4.85;;;2.10;;
49730;SDS011;35622;52.008;5.426;2023-08-17T06:15:21;5.45;;;2.42;;
49730;SDS011;35622;52.008;5.426;2023-08-17T06:17:47;3.35;;;1.92;;
49730;SDS011;35622;52.008;5.426;2023-08-17T06:20:15;8.82;;;2.40;;
49730;SDS011;35622;52.008;5.426;2023-08-17T06:22:41;4.13;;;1.92;;
49730;SDS011;35622;52.008;5.426;2023-08-17T06:25:07;4.63;;;1.92;;
49730;SDS011;35622;52.008;5.426;2023-08-17T06:27:33;4.85;;;1.80;;
49730;SDS011;35622;52.008;5.426;2023-08-17T06:29:59;5.57;;;2.05;;
49730;SDS011;35622;52.008;5.426;2023-08-17T06:32:25;3.72;;;1.80;;
49730;SDS011;35622;52.008;5.426;2023-08-17T06:34:51;7.35;;;2.35;;
49730;SDS011;35622;52.008;5.426;2023-08-17T06:37:19;3.25;;;2.30;;
49730;SDS011;35622;52.008;5.426;2023-08-17T06:39:44;6.93;;;2.25;;
49730;SDS011;35622;52.008;5.426;2023-08-17T06:42:10;4.13;;;1.92;;
49730;SDS011;35622;52.008;5.426;2023-08-17T06:44:35;5.13;;;2.20;;
49730;SDS011;35622;52.008;5.426;2023-08-17T06:47:01;4.68;;;1.88;;
49730;SDS011;35622;52.008;5.426;2023-08-17T06:49:26;4.55;;;2.03;;
49730;SDS011;35622;52.008;5.426;2023-08-17T06:51:52;3.83;;;2.10;;
49730;SDS011;35622;52.008;5.426;2023-08-17T06:54:18;4.20;;;2.08;;
49730;SDS011;35622;52.008;5.426;2023-08-17T06:56:43;6.32;;;1.98;;
49730;SDS011;35622;52.008;5.426;2023-08-17T06:59:09;5.13;;;2.28;;
49730;SDS011;35622;52.008;5.426;2023-08-17T07:01:35;8.48;;;2.47;;
49730;SDS011;35622;52.008;5.426;2023-08-17T07:04:01;5.10;;;2.42;;
49730;SDS011;35622;52.008;5.426;2023-08-17T07:06:27;6.65;;;2.22;;
49730;SDS011;35622;52.008;5.426;2023-08-17T07:08:53;4.97;;;2.50;;
49730;SDS011;35622;52.008;5.426;2023-08-17T07:11:19;5.00;;;2.20;;
49730;SDS011;35622;52.008;5.426;2023-08-17T07:13:45;5.40;;;2.40;;
49730;SDS011;35622;52.008;5.426;2023-08-17T07:16:10;5.05;;;2.08;;
49730;SDS011;35622;52.008;5.426;2023-08-17T07:18:36;3.50;;;2.10;;
49730;SDS011;35622;52.008;5.426;2023-08-17T07:21:02;4.05;;;2.42;;
49730;SDS011;35622;52.008;5.426;2023-08-17T07:23:27;4.78;;;2.15;;
49730;SDS011;35622;52.008;5.426;2023-08-17T07:25:53;7.05;;;2.55;;
49730;SDS011;35622;52.008;5.426;2023-08-17T07:28:18;7.70;;;3.13;;
49730;SDS011;35622;52.008;5.426;2023-08-17T07:30:44;4.90;;;2.30;;
49730;SDS011;35622;52.008;5.426;2023-08-17T07:33:10;4.00;;;2.20;;
49730;SDS011;35622;52.008;5.426;2023-08-17T07:35:35;7.93;;;2.50;;
49730;SDS011;35622;52.008;5.426;2023-08-17T07:38:01;5.15;;;2.45;;
49730;SDS011;35622;52.008;5.426;2023-08-17T07:40:27;3.97;;;2.50;;
49730;SDS011;35622;52.008;5.426;2023-08-17T07:42:52;5.05;;;2.20;;
49730;SDS011;35622;52.008;5.426;2023-08-17T07:45:18;4.10;;;2.10;;
49730;SDS011;35622;52.008;5.426;2023-08-17T07:47:43;4.63;;;2.17;;
49730;SDS011;35622;52.008;5.426;2023-08-17T07:50:09;4.80;;;1.90;;
49730;SDS011;35622;52.008;5.426;2023-08-17T07:52:35;6.75;;;2.28;;
49730;SDS011;35622;52.008;5.426;2023-08-17T07:55:00;5.38;;;2.45;;
49730;SDS011;35622;52.008;5.426;2023-08-17T07:57:26;6.63;;;2.60;;
49730;SDS011;35622;52.008;5.426;2023-08-17T07:59:52;4.93;;;2.40;;
49730;SDS011;35622;52.008;5.426;2023-08-17T08:02:18;5.82;;;2.15;;
49730;SDS011;35622;52.008;5.426;2023-08-17T08:04:44;4.53;;;2.20;;
49730;SDS011;35622;52.008;5.426;2023-08-17T08:07:10;5.22;;;2.47;;
49730;SDS011;35622;52.008;5.426;2023-08-17T08:09:35;6.07;;;2.50;;
49730;SDS011;35622;52.008;5.426;2023-08-17T08:12:01;7.85;;;2.03;;
49730;SDS011;35622;52.008;5.426;2023-08-17T08:14:27;5.28;;;2.17;;
49730;SDS011;35622;52.008;5.426;2023-08-17T08:16:54;7.63;;;2.50;;
49730;SDS011;35622;52.008;5.426;2023-08-17T08:19:19;4.25;;;2.30;;
49730;SDS011;35622;52.008;5.426;2023-08-17T08:21:45;6.15;;;2.25;;
49730;SDS011;35622;52.008;5.426;2023-08-17T08:24:10;5.93;;;2.78;;
49730;SDS011;35622;52.008;5.426;2023-08-17T08:26:36;4.60;;;2.30;;
49730;SDS011;35622;52.008;5.426;2023-08-17T08:29:01;6.60;;;2.70;;
49730;SDS011;35622;52.008;5.426;2023-08-17T08:31:27;5.93;;;2.55;;
49730;SDS011;35622;52.008;5.426;2023-08-17T08:33:52;9.27;;;2.50;;
49730;SDS011;35622;52.008;5.426;2023-08-17T08:36:19;5.45;;;2.90;;
49730;SDS011;35622;52.008;5.426;2023-08-17T08:38:44;4.80;;;2.95;;
49730;SDS011;35622;52.008;5.426;2023-08-17T08:41:10;5.78;;;3.13;;
49730;SDS011;35622;52.008;5.426;2023-08-17T08:43:36;6.90;;;2.60;;
49730;SDS011;35622;52.008;5.426;2023-08-17T08:46:03;6.72;;;2.95;;
49730;SDS011;35622;52.008;5.426;2023-08-17T08:48:30;7.20;;;2.97;;
49730;SDS011;35622;52.008;5.426;2023-08-17T08:50:57;6.70;;;2.67;;
49730;SDS011;35622;52.008;5.426;2023-08-17T08:53:31;7.35;;;3.20;;
49730;SDS011;35622;52.008;5.426;2023-08-17T08:56:01;6.93;;;3.00;;
49730;SDS011;35622;52.008;5.426;2023-08-17T08:58:26;7.97;;;2.58;;
49730;SDS011;35622;52.008;5.426;2023-08-17T09:00:54;6.43;;;2.67;;
49730;SDS011;35622;52.008;5.426;2023-08-17T09:03:20;4.68;;;2.22;;
49730;SDS011;35622;52.008;5.426;2023-08-17T09:05:49;5.00;;;2.67;;
49730;SDS011;35622;52.008;5.426;2023-08-17T09:08:18;6.15;;;2.65;;
49730;SDS011;35622;52.008;5.426;2023-08-17T09:10:48;4.55;;;2.55;;
49730;SDS011;35622;52.008;5.426;2023-08-17T09:13:14;5.30;;;2.25;;
49730;SDS011;35622;52.008;5.426;2023-08-17T09:15:40;6.57;;;3.00;;
49730;SDS011;35622;52.008;5.426;2023-08-17T09:18:06;6.60;;;3.03;;
49730;SDS011;35622;52.008;5.426;2023-08-17T09:20:38;5.75;;;2.65;;
49730;SDS011;35622;52.008;5.426;2023-08-17T09:23:09;5.28;;;2.47;;
49730;SDS011;35622;52.008;5.426;2023-08-17T09:25:37;7.68;;;2.80;;
49730;SDS011;35622;52.008;5.426;2023-08-17T09:28:10;7.70;;;3.10;;
49730;SDS011;35622;52.008;5.426;2023-08-17T09:30:58;6.90;;;2.83;;
49730;SDS011;35622;52.008;5.426;2023-08-17T09:33:25;5.10;;;2.80;;
49730;SDS011;35622;52.008;5.426;2023-08-17T09:35:53;5.07;;;3.00;;
49730;SDS011;35622;52.008;5.426;2023-08-17T09:38:19;5.18;;;2.90;;
49730;SDS011;35622;52.008;5.426;2023-08-17T09:40:46;5.82;;;3.42;;
49730;SDS011;35622;52.008;5.426;2023-08-17T09:43:12;8.57;;;2.83;;
49730;SDS011;35622;52.008;5.426;2023-08-17T09:45:39;7.25;;;3.25;;
49730;SDS011;35622;52.008;5.426;2023-08-17T09:48:08;7.30;;;3.22;;
49730;SDS011;35622;52.008;5.426;2023-08-17T09:50:34;7.43;;;3.47;;
49730;SDS011;35622;52.008;5.426;2023-08-17T09:53:01;10.10;;;3.45;;
49730;SDS011;35622;52.008;5.426;2023-08-17T09:55:29;8.90;;;3.85;;
49730;SDS011;35622;52.008;5.426;2023-08-17T09:57:57;12.15;;;4.22;;
49730;SDS011;35622;52.008;5.426;2023-08-17T10:00:22;9.60;;;3.83;;
49730;SDS011;35622;52.008;5.426;2023-08-17T10:02:50;11.32;;;4.15;;
49730;SDS011;35622;52.008;5.426;2023-08-17T10:05:19;7.57;;;3.63;;
49730;SDS011;35622;52.008;5.426;2023-08-17T10:07:46;9.18;;;3.83;;
49730;SDS011;35622;52.008;5.426;2023-08-17T10:10:16;8.75;;;4.63;;
49730;SDS011;35622;52.008;5.426;2023-08-17T10:12:48;7.57;;;3.55;;
49730;SDS011;35622;52.008;5.426;2023-08-17T10:15:25;9.48;;;4.10;;
49730;SDS011;35622;52.008;5.426;2023-08-17T10:20:34;7.75;;;4.50;;
49730;SDS011;35622;52.008;5.426;2023-08-17T10:23:07;10.02;;;4.40;;
49730;SDS011;35622;52.008;5.426;2023-08-17T10:25:39;7.68;;;4.28;;
49730;SDS011;35622;52.008;5.426;2023-08-17T10:28:07;9.63;;;3.92;;
49730;SDS011;35622;52.008;5.426;2023-08-17T10:30:34;12.48;;;3.80;;
49730;SDS011;35622;52.008;5.426;2023-08-17T10:33:01;9.95;;;3.80;;
49730;SDS011;35622;52.008;5.426;2023-08-17T10:35:28;7.68;;;4.00;;
49730;SDS011;35622;52.008;5.426;2023-08-17T10:37:55;7.80;;;4.03;;
49730;SDS011;35622;52.008;5.426;2023-08-17T10:40:27;9.82;;;4.25;;
49730;SDS011;35622;52.008;5.426;2023-08-17T10:42:54;6.65;;;3.75;;
49730;SDS011;35622;52.008;5.426;2023-08-17T10:45:29;7.15;;;4.15;;
49730;SDS011;35622;52.008;5.426;2023-08-17T10:50:35;8.50;;;3.92;;
49730;SDS011;35622;52.008;5.426;2023-08-17T10:53:08;8.80;;;3.80;;
49730;SDS011;35622;52.008;5.426;2023-08-17T10:55:42;8.43;;;4.38;;
49730;SDS011;35622;52.008;5.426;2023-08-17T10:58:10;7.70;;;4.30;;
49730;SDS011;35622;52.008;5.426;2023-08-17T11:00:37;8.23;;;3.45;;
49730;SDS011;35622;52.008;5.426;2023-08-17T11:03:08;7.78;;;4.03;;
49730;SDS011;35622;52.008;5.426;2023-08-17T11:05:48;8.98;;;4.05;;
49730;SDS011;35622;52.008;5.426;2023-08-17T11:11:11;10.13;;;3.70;;
49730;SDS011;35622;52.008;5.426;2023-08-17T11:13:47;11.82;;;4.65;;
49730;SDS011;35622;52.008;5.426;2023-08-17T11:16:14;10.77;;;3.97;;
49730;SDS011;35622;52.008;5.426;2023-08-17T11:18:40;9.88;;;4.18;;
49730;SDS011;35622;52.008;5.426;2023-08-17T11:21:06;9.38;;;4.22;;
49730;SDS011;35622;52.008;5.426;2023-08-17T11:23:33;11.80;;;4.20;;
49730;SDS011;35622;52.008;5.426;2023-08-17T11:26:01;8.35;;;4.28;;
49730;SDS011;35622;52.008;5.426;2023-08-17T11:28:27;9.02;;;4.03;;
49730;SDS011;35622;52.008;5.426;2023-08-17T11:31:01;10.82;;;4.45;;
49730;SDS011;35622;52.008;5.426;2023-08-17T11:33:29;11.20;;;5.63;;
49730;SDS011;35622;52.008;5.426;2023-08-17T11:35:56;7.35;;;4.32;;
49730;SDS011;35622;52.008;5.426;2023-08-17T11:38:29;9.70;;;4.80;;
49730;SDS011;35622;52.008;5.426;2023-08-17T11:40:55;10.20;;;5.05;;
49730;SDS011;35622;52.008;5.426;2023-08-17T11:43:22;9.43;;;4.70;;
49730;SDS011;35622;52.008;5.426;2023-08-17T11:45:48;13.45;;;5.18;;
49730;SDS011;35622;52.008;5.426;2023-08-17T11:48:14;9.75;;;5.00;;
49730;SDS011;35622;52.008;5.426;2023-08-17T11:50:41;9.25;;;4.82;;
49730;SDS011;35622;52.008;5.426;2023-08-17T11:53:07;9.73;;;5.00;;
49730;SDS011;35622;52.008;5.426;2023-08-17T11:55:33;10.02;;;4.80;;
49730;SDS011;35622;52.008;5.426;2023-08-17T11:57:59;8.85;;;5.40;;
49730;SDS011;35622;52.008;5.426;2023-08-17T12:00:24;10.52;;;4.50;;
49730;SDS011;35622;52.008;5.426;2023-08-17T12:02:51;9.27;;;4.60;;
49730;SDS011;35622;52.008;5.426;2023-08-17T12:05:21;8.80;;;4.55;;
49730;SDS011;35622;52.008;5.426;2023-08-17T12:07:48;10.10;;;4.80;;
49730;SDS011;35622;52.008;5.426;2023-08-17T12:10:15;6.78;;;4.18;;
49730;SDS011;35622;52.008;5.426;2023-08-17T12:12:41;7.82;;;4.57;;
49730;SDS011;35622;52.008;5.426;2023-08-17T12:15:07;9.27;;;4.68;;
49730;SDS011;35622;52.008;5.426;2023-08-17T12:17:35;10.88;;;4.65;;
49730;SDS011;35622;52.008;5.426;2023-08-17T12:20:05;9.00;;;4.20;;
49730;SDS011;35622;52.008;5.426;2023-08-17T12:22:31;8.50;;;4.78;;
49730;SDS011;35622;52.008;5.426;2023-08-17T12:24:57;8.70;;;4.72;;
49730;SDS011;35622;52.008;5.426;2023-08-17T12:27:23;10.25;;;4.90;;
49730;SDS011;35622;52.008;5.426;2023-08-17T12:29:49;9.98;;;4.75;;
49730;SDS011;35622;52.008;5.426;2023-08-17T12:32:16;7.70;;;4.40;;
49730;SDS011;35622;52.008;5.426;2023-08-17T12:34:43;7.05;;;4.93;;
49730;SDS011;35622;52.008;5.426;2023-08-17T12:37:09;8.68;;;5.32;;
49730;SDS011;35622;52.008;5.426;2023-08-17T12:39:35;9.63;;;5.55;;
49730;SDS011;35622;52.008;5.426;2023-08-17T12:42:02;11.23;;;5.32;;
49730;SDS011;35622;52.008;5.426;2023-08-17T12:44:28;11.27;;;5.05;;
49730;SDS011;35622;52.008;5.426;2023-08-17T12:46:54;7.45;;;4.75;;
49730;SDS011;35622;52.008;5.426;2023-08-17T12:49:19;10.23;;;4.97;;
49730;SDS011;35622;52.008;5.426;2023-08-17T12:51:45;9.23;;;5.60;;
49730;SDS011;35622;52.008;5.426;2023-08-17T12:54:10;10.13;;;5.60;;
49730;SDS011;35622;52.008;5.426;2023-08-17T12:56:36;8.45;;;5.68;;
49730;SDS011;35622;52.008;5.426;2023-08-17T12:59:01;9.25;;;5.55;;
49730;SDS011;35622;52.008;5.426;2023-08-17T13:01:27;8.52;;;5.45;;
49730;SDS011;35622;52.008;5.426;2023-08-17T13:03:52;9.98;;;5.25;;
49730;SDS011;35622;52.008;5.426;2023-08-17T13:06:19;11.48;;;5.38;;
49730;SDS011;35622;52.008;5.426;2023-08-17T13:08:44;8.85;;;4.97;;
49730;SDS011;35622;52.008;5.426;2023-08-17T13:11:10;7.45;;;4.57;;
49730;SDS011;35622;52.008;5.426;2023-08-17T13:13:36;10.18;;;4.90;;
49730;SDS011;35622;52.008;5.426;2023-08-17T13:16:01;8.43;;;4.60;;
49730;SDS011;35622;52.008;5.426;2023-08-17T13:18:27;7.97;;;4.47;;
49730;SDS011;35622;52.008;5.426;2023-08-17T13:20:53;8.68;;;5.45;;
49730;SDS011;35622;52.008;5.426;2023-08-17T13:23:19;6.80;;;4.38;;
49730;SDS011;35622;52.008;5.426;2023-08-17T13:25:44;6.13;;;4.25;;
49730;SDS011;35622;52.008;5.426;2023-08-17T13:28:10;9.15;;;5.22;;
49730;SDS011;35622;52.008;5.426;2023-08-17T13:30:37;11.10;;;4.95;;
49730;SDS011;35622;52.008;5.426;2023-08-17T13:33:04;10.35;;;5.57;;
49730;SDS011;35622;52.008;5.426;2023-08-17T13:35:31;7.20;;;5.00;;
49730;SDS011;35622;52.008;5.426;2023-08-17T13:37:57;7.68;;;5.35;;
49730;SDS011;35622;52.008;5.426;2023-08-17T13:40:23;7.72;;;5.13;;
49730;SDS011;35622;52.008;5.426;2023-08-17T13:42:49;6.53;;;4.53;;
49730;SDS011;35622;52.008;5.426;2023-08-17T13:45:14;7.18;;;5.10;;
49730;SDS011;35622;52.008;5.426;2023-08-17T13:47:40;7.95;;;4.78;;
49730;SDS011;35622;52.008;5.426;2023-08-17T13:50:06;7.78;;;5.10;;
49730;SDS011;35622;52.008;5.426;2023-08-17T13:52:31;7.80;;;5.28;;
49730;SDS011;35622;52.008;5.426;2023-08-17T13:54:57;7.43;;;5.00;;
49730;SDS011;35622;52.008;5.426;2023-08-17T13:57:23;10.30;;;6.63;;
49730;SDS011;35622;52.008;5.426;2023-08-17T13:59:48;8.77;;;5.80;;
49730;SDS011;35622;52.008;5.426;2023-08-17T14:02:14;8.60;;;5.90;;
49730;SDS011;35622;52.008;5.426;2023-08-17T14:04:39;7.90;;;6.18;;
49730;SDS011;35622;52.008;5.426;2023-08-17T14:07:05;9.25;;;5.88;;
49730;SDS011;35622;52.008;5.426;2023-08-17T14:09:31;7.22;;;5.90;;
49730;SDS011;35622;52.008;5.426;2023-08-17T14:11:56;8.68;;;6.35;;
49730;SDS011;35622;52.008;5.426;2023-08-17T14:14:22;9.25;;;5.88;;
49730;SDS011;35622;52.008;5.426;2023-08-17T14:16:48;7.20;;;5.45;;
49730;SDS011;35622;52.008;5.426;2023-08-17T14:19:13;9.13;;;6.35;;
49730;SDS011;35622;52.008;5.426;2023-08-17T14:21:39;8.25;;;5.72;;
49730;SDS011;35622;52.008;5.426;2023-08-17T14:24:04;9.40;;;5.90;;
49730;SDS011;35622;52.008;5.426;2023-08-17T14:26:32;9.43;;;6.13;;
49730;SDS011;35622;52.008;5.426;2023-08-17T14:28:57;8.98;;;6.18;;
49730;SDS011;35622;52.008;5.426;2023-08-17T14:31:23;9.13;;;6.78;;
49730;SDS011;35622;52.008;5.426;2023-08-17T14:33:48;11.07;;;7.22;;
49730;SDS011;35622;52.008;5.426;2023-08-17T14:36:14;7.03;;;5.80;;
49730;SDS011;35622;52.008;5.426;2023-08-17T14:38:41;9.10;;;6.90;;
49730;SDS011;35622;52.008;5.426;2023-08-17T14:41:07;8.43;;;6.15;;
49730;SDS011;35622;52.008;5.426;2023-08-17T14:43:33;7.63;;;6.05;;
49730;SDS011;35622;52.008;5.426;2023-08-17T14:45:59;7.40;;;5.53;;
49730;SDS011;35622;52.008;5.426;2023-08-17T14:48:25;8.32;;;5.93;;
49730;SDS011;35622;52.008;5.426;2023-08-17T14:50:50;8.23;;;5.88;;
49730;SDS011;35622;52.008;5.426;2023-08-17T14:53:16;9.73;;;6.82;;
49730;SDS011;35622;52.008;5.426;2023-08-17T14:55:42;10.32;;;5.97;;
49730;SDS011;35622;52.008;5.426;2023-08-17T14:58:07;8.85;;;6.30;;